sensor_id;sensor_type;location;lat;lon;timestamp;temperature;humidity
52471;DHT22;38382;53.160;7.026;2022-09-13T00:01:27;17.60;99.90
52471;DHT22;38382;53.160;7.026;2022-09-13T00:07:08;17.60;99.90
52471;DHT22;38382;53.160;7.026;2022-09-13T00:09:34;17.60;99.90
52471;DHT22;38382;53.160;7.026;2022-09-13T00:12:35;17.60;99.90
52471;DHT22;38382;53.160;7.026;2022-09-13T00:18:42;17.60;99.90
52471;DHT22;38382;53.160;7.026;2022-09-13T00:21:16;17.50;99.90
52471;DHT22;38382;53.160;7.026;2022-09-13T00:23:52;17.50;99.90
52471;DHT22;38382;53.160;7.026;2022-09-13T00:27:40;17.50;99.90
52471;DHT22;38382;53.160;7.026;2022-09-13T00:30:07;17.50;99.90
52471;DHT22;38382;53.160;7.026;2022-09-13T00:35:49;17.50;99.90
52471;DHT22;38382;53.160;7.026;2022-09-13T00:38:15;17.50;99.90
52471;DHT22;38382;53.160;7.026;2022-09-13T00:40:53;17.50;99.90
52471;DHT22;38382;53.160;7.026;2022-09-13T00:52:43;17.40;99.90
52471;DHT22;38382;53.160;7.026;2022-09-13T00:55:49;17.40;99.90
52471;DHT22;38382;53.160;7.026;2022-09-13T00:59:22;17.70;99.90
52471;DHT22;38382;53.160;7.026;2022-09-13T01:01:58;17.40;99.90
52471;DHT22;38382;53.160;7.026;2022-09-13T01:19:41;16.80;99.90
52471;DHT22;38382;53.160;7.026;2022-09-13T01:56:16;17.10;99.90
52471;DHT22;38382;53.160;7.026;2022-09-13T02:21:22;17.00;99.90
52471;DHT22;38382;53.160;7.026;2022-09-13T02:24:36;17.30;99.90
52471;DHT22;38382;53.160;7.026;2022-09-13T02:34:44;17.20;99.90
52471;DHT22;38382;53.160;7.026;2022-09-13T02:37:13;17.30;99.90
52471;DHT22;38382;53.160;7.026;2022-09-13T02:39:50;17.20;99.90
52471;DHT22;38382;53.160;7.026;2022-09-13T02:56:56;17.20;99.90
52471;DHT22;38382;53.160;7.026;2022-09-13T02:59:24;17.20;99.90
52471;DHT22;38382;53.160;7.026;2022-09-13T03:02:11;17.20;99.90
52471;DHT22;38382;53.160;7.026;2022-09-13T03:05:16;17.20;99.90
52471;DHT22;38382;53.160;7.026;2022-09-13T03:07:42;17.20;99.90
52471;DHT22;38382;53.160;7.026;2022-09-13T03:10:34;17.00;99.90
52471;DHT22;38382;53.160;7.026;2022-09-13T03:35:03;17.20;99.90
52471;DHT22;38382;53.160;7.026;2022-09-13T03:47:54;17.20;99.90
52471;DHT22;38382;53.160;7.026;2022-09-13T03:50:55;17.10;99.90
52471;DHT22;38382;53.160;7.026;2022-09-13T03:56:34;17.10;99.90
52471;DHT22;38382;53.160;7.026;2022-09-13T03:59:00;17.10;99.90
52471;DHT22;38382;53.160;7.026;2022-09-13T04:01:45;17.10;99.90
52471;DHT22;38382;53.160;7.026;2022-09-13T04:04:11;17.10;99.90
52471;DHT22;38382;53.160;7.026;2022-09-13T04:07:23;17.10;99.90
52471;DHT22;38382;53.160;7.026;2022-09-13T04:10:05;17.60;99.90
52471;DHT22;38382;53.160;7.026;2022-09-13T04:15:40;17.10;99.90
52471;DHT22;38382;53.160;7.026;2022-09-13T04:33:16;16.80;99.90
52471;DHT22;38382;53.160;7.026;2022-09-13T04:36:22;17.00;99.90
52471;DHT22;38382;53.160;7.026;2022-09-13T04:42:54;17.00;99.90
52471;DHT22;38382;53.160;7.026;2022-09-13T05:00:44;16.90;99.90
52471;DHT22;38382;53.160;7.026;2022-09-13T05:03:37;16.90;99.90
52471;DHT22;38382;53.160;7.026;2022-09-13T05:21:31;16.90;99.90
52471;DHT22;38382;53.160;7.026;2022-09-13T05:24:21;16.90;99.90
52471;DHT22;38382;53.160;7.026;2022-09-13T05:48:34;16.90;99.90
52471;DHT22;38382;53.160;7.026;2022-09-13T05:55:36;17.00;99.90
52471;DHT22;38382;53.160;7.026;2022-09-13T05:58:04;17.00;99.90
52471;DHT22;38382;53.160;7.026;2022-09-13T06:08:19;17.00;99.90
52471;DHT22;38382;53.160;7.026;2022-09-13T06:37:54;16.30;99.90
52471;DHT22;38382;53.160;7.026;2022-09-13T06:41:08;17.10;99.90
52471;DHT22;38382;53.160;7.026;2022-09-13T06:44:44;17.20;99.90
52471;DHT22;38382;53.160;7.026;2022-09-13T06:47:46;17.20;99.90
52471;DHT22;38382;53.160;7.026;2022-09-13T07:26:40;17.50;99.90
52471;DHT22;38382;53.160;7.026;2022-09-13T07:29:18;18.00;99.90
52471;DHT22;38382;53.160;7.026;2022-09-13T07:32:19;18.10;99.90
52471;DHT22;38382;53.160;7.026;2022-09-13T07:35:24;18.00;99.90
52471;DHT22;38382;53.160;7.026;2022-09-13T07:42:23;18.10;99.90
52471;DHT22;38382;53.160;7.026;2022-09-13T07:56:30;18.40;99.90
52471;DHT22;38382;53.160;7.026;2022-09-13T08:06:07;18.50;99.90
52471;DHT22;38382;53.160;7.026;2022-09-13T08:08:36;18.60;99.90
52471;DHT22;38382;53.160;7.026;2022-09-13T08:11:04;18.10;99.90
52471;DHT22;38382;53.160;7.026;2022-09-13T08:13:31;18.60;99.90
52471;DHT22;38382;53.160;7.026;2022-09-13T08:16:04;18.80;99.90
52471;DHT22;38382;53.160;7.026;2022-09-13T08:18:45;18.60;99.90
52471;DHT22;38382;53.160;7.026;2022-09-13T08:21:36;18.70;99.90
52471;DHT22;38382;53.160;7.026;2022-09-13T08:24:03;18.80;99.90
52471;DHT22;38382;53.160;7.026;2022-09-13T08:26:31;18.80;99.90
52471;DHT22;38382;53.160;7.026;2022-09-13T08:29:00;18.80;99.90
52471;DHT22;38382;53.160;7.026;2022-09-13T08:31:44;18.80;99.90
52471;DHT22;38382;53.160;7.026;2022-09-13T08:34:13;18.80;99.90
52471;DHT22;38382;53.160;7.026;2022-09-13T08:36:51;18.90;99.90
52471;DHT22;38382;53.160;7.026;2022-09-13T08:39:22;19.30;99.90
52471;DHT22;38382;53.160;7.026;2022-09-13T08:42:10;18.60;99.90
52471;DHT22;38382;53.160;7.026;2022-09-13T08:44:45;19.10;99.90
52471;DHT22;38382;53.160;7.026;2022-09-13T08:56:06;19.80;99.90
52471;DHT22;38382;53.160;7.026;2022-09-13T08:58:44;19.60;99.90
52471;DHT22;38382;53.160;7.026;2022-09-13T09:06:45;19.90;99.90
52471;DHT22;38382;53.160;7.026;2022-09-13T09:09:16;20.10;99.90
52471;DHT22;38382;53.160;7.026;2022-09-13T09:12:49;20.30;99.90
52471;DHT22;38382;53.160;7.026;2022-09-13T09:15:28;20.50;99.90
52471;DHT22;38382;53.160;7.026;2022-09-13T09:18:11;20.70;99.90
52471;DHT22;38382;53.160;7.026;2022-09-13T09:21:19;21.00;99.90
52471;DHT22;38382;53.160;7.026;2022-09-13T09:26:51;21.20;99.90
52471;DHT22;38382;53.160;7.026;2022-09-13T09:29:31;20.50;99.90
52471;DHT22;38382;53.160;7.026;2022-09-13T09:32:46;20.80;99.90
52471;DHT22;38382;53.160;7.026;2022-09-13T09:38:35;21.50;99.90
52471;DHT22;38382;53.160;7.026;2022-09-13T09:44:28;21.70;99.90
52471;DHT22;38382;53.160;7.026;2022-09-13T09:49:45;21.50;99.90
52471;DHT22;38382;53.160;7.026;2022-09-13T09:57:15;21.90;99.90
52471;DHT22;38382;53.160;7.026;2022-09-13T10:00:12;22.50;99.90
52471;DHT22;38382;53.160;7.026;2022-09-13T10:03:20;22.60;99.90
52471;DHT22;38382;53.160;7.026;2022-09-13T10:06:07;22.60;99.90
52471;DHT22;38382;53.160;7.026;2022-09-13T10:09:06;21.90;99.90
52471;DHT22;38382;53.160;7.026;2022-09-13T10:11:43;21.80;99.90
52471;DHT22;38382;53.160;7.026;2022-09-13T11:39:01;22.80;99.90
52471;DHT22;38382;53.160;7.026;2022-09-13T11:45:04;23.50;99.90
52471;DHT22;38382;53.160;7.026;2022-09-13T11:57:34;24.40;95.60
52471;DHT22;38382;53.160;7.026;2022-09-13T12:00:31;24.90;96.40
52471;DHT22;38382;53.160;7.026;2022-09-13T12:09:05;24.70;91.40
52471;DHT22;38382;53.160;7.026;2022-09-13T12:15:17;24.80;92.00
52471;DHT22;38382;53.160;7.026;2022-09-13T12:17:52;25.20;94.20
52471;DHT22;38382;53.160;7.026;2022-09-13T12:20:34;25.30;93.50
52471;DHT22;38382;53.160;7.026;2022-09-13T12:23:04;25.00;92.90
52471;DHT22;38382;53.160;7.026;2022-09-13T12:26:02;24.60;93.80
52471;DHT22;38382;53.160;7.026;2022-09-13T12:28:39;24.60;93.90
52471;DHT22;38382;53.160;7.026;2022-09-13T12:31:15;24.80;94.00
52471;DHT22;38382;53.160;7.026;2022-09-13T12:33:44;25.00;93.20
52471;DHT22;38382;53.160;7.026;2022-09-13T12:39:25;25.40;90.10
52471;DHT22;38382;53.160;7.026;2022-09-13T12:56:14;26.10;89.60
52471;DHT22;38382;53.160;7.026;2022-09-13T13:01:30;26.20;90.50
52471;DHT22;38382;53.160;7.026;2022-09-13T13:04:37;26.30;90.40
52471;DHT22;38382;53.160;7.026;2022-09-13T13:07:20;26.00;88.40
52471;DHT22;38382;53.160;7.026;2022-09-13T13:09:59;25.40;89.40
52471;DHT22;38382;53.160;7.026;2022-09-13T13:15:05;24.90;92.00
52471;DHT22;38382;53.160;7.026;2022-09-13T13:22:50;25.10;92.60
52471;DHT22;38382;53.160;7.026;2022-09-13T13:25:35;25.30;91.60
52471;DHT22;38382;53.160;7.026;2022-09-13T13:39:45;25.50;90.40
52471;DHT22;38382;53.160;7.026;2022-09-13T13:42:31;25.70;90.00
52471;DHT22;38382;53.160;7.026;2022-09-13T13:45:14;25.60;86.90
52471;DHT22;38382;53.160;7.026;2022-09-13T13:47:50;25.60;90.10
52471;DHT22;38382;53.160;7.026;2022-09-13T13:53:16;25.30;89.70
52471;DHT22;38382;53.160;7.026;2022-09-13T13:55:48;25.30;90.40
52471;DHT22;38382;53.160;7.026;2022-09-13T13:58:55;25.40;89.70
52471;DHT22;38382;53.160;7.026;2022-09-13T14:05:09;25.60;86.20
52471;DHT22;38382;53.160;7.026;2022-09-13T14:18:33;26.90;84.60
52471;DHT22;38382;53.160;7.026;2022-09-13T14:21:30;27.80;83.10
52471;DHT22;38382;53.160;7.026;2022-09-13T14:28:23;28.10;78.70
52471;DHT22;38382;53.160;7.026;2022-09-13T14:38:47;28.80;76.00
52471;DHT22;38382;53.160;7.026;2022-09-13T14:41:40;29.00;75.10
52471;DHT22;38382;53.160;7.026;2022-09-13T14:48:09;29.70;73.30
52471;DHT22;38382;53.160;7.026;2022-09-13T14:51:32;30.30;70.00
52471;DHT22;38382;53.160;7.026;2022-09-13T15:05:24;30.50;67.40
52471;DHT22;38382;53.160;7.026;2022-09-13T15:20:01;29.20;65.30
52471;DHT22;38382;53.160;7.026;2022-09-13T15:22:28;29.40;66.40
52471;DHT22;38382;53.160;7.026;2022-09-13T15:24:55;29.30;66.50
52471;DHT22;38382;53.160;7.026;2022-09-13T15:53:10;25.30;69.90
52471;DHT22;38382;53.160;7.026;2022-09-13T16:03:13;24.50;71.10
52471;DHT22;38382;53.160;7.026;2022-09-13T16:06:04;23.90;73.30
52471;DHT22;38382;53.160;7.026;2022-09-13T16:08:50;23.70;74.10
52471;DHT22;38382;53.160;7.026;2022-09-13T16:11:24;23.50;76.30
52471;DHT22;38382;53.160;7.026;2022-09-13T16:13:52;23.20;77.20
52471;DHT22;38382;53.160;7.026;2022-09-13T16:16:45;23.00;78.40
52471;DHT22;38382;53.160;7.026;2022-09-13T16:19:18;22.80;79.30
52471;DHT22;38382;53.160;7.026;2022-09-13T16:21:56;22.50;80.10
52471;DHT22;38382;53.160;7.026;2022-09-13T16:24:43;22.30;80.80
52471;DHT22;38382;53.160;7.026;2022-09-13T16:27:28;22.20;81.10
52471;DHT22;38382;53.160;7.026;2022-09-13T16:29:54;22.40;82.40
52471;DHT22;38382;53.160;7.026;2022-09-13T16:32:20;21.90;82.80
52471;DHT22;38382;53.160;7.026;2022-09-13T16:34:46;21.80;82.50
52471;DHT22;38382;53.160;7.026;2022-09-13T16:45:48;21.40;83.50
52471;DHT22;38382;53.160;7.026;2022-09-13T16:49:16;21.20;84.60
52471;DHT22;38382;53.160;7.026;2022-09-13T16:52:07;21.00;86.80
52471;DHT22;38382;53.160;7.026;2022-09-13T16:58:23;20.70;85.90
52471;DHT22;38382;53.160;7.026;2022-09-13T17:00:49;20.60;87.30
52471;DHT22;38382;53.160;7.026;2022-09-13T17:10:30;20.00;90.30
52471;DHT22;38382;53.160;7.026;2022-09-13T17:13:54;19.90;91.10
52471;DHT22;38382;53.160;7.026;2022-09-13T17:16:38;19.90;91.90
52471;DHT22;38382;53.160;7.026;2022-09-13T17:26:44;19.50;95.00
52471;DHT22;38382;53.160;7.026;2022-09-13T17:29:16;19.40;96.70
52471;DHT22;38382;53.160;7.026;2022-09-13T17:31:42;19.30;98.80
52471;DHT22;38382;53.160;7.026;2022-09-13T17:34:11;19.30;99.90
52471;DHT22;38382;53.160;7.026;2022-09-13T17:36:39;19.40;99.90
52471;DHT22;38382;53.160;7.026;2022-09-13T17:39:05;19.20;99.90
52471;DHT22;38382;53.160;7.026;2022-09-13T17:41:31;19.10;99.90
52471;DHT22;38382;53.160;7.026;2022-09-13T17:43:57;19.00;99.90
52471;DHT22;38382;53.160;7.026;2022-09-13T17:46:25;19.00;99.90
52471;DHT22;38382;53.160;7.026;2022-09-13T17:48:53;18.90;99.90
52471;DHT22;38382;53.160;7.026;2022-09-13T17:51:22;19.40;99.90
52471;DHT22;38382;53.160;7.026;2022-09-13T17:54:02;18.80;99.90
52471;DHT22;38382;53.160;7.026;2022-09-13T17:56:43;18.50;99.90
52471;DHT22;38382;53.160;7.026;2022-09-13T17:59:35;18.70;99.90
52471;DHT22;38382;53.160;7.026;2022-09-13T18:02:01;18.60;99.90
52471;DHT22;38382;53.160;7.026;2022-09-13T18:04:27;18.60;99.90
52471;DHT22;38382;53.160;7.026;2022-09-13T18:06:53;18.60;99.90
52471;DHT22;38382;53.160;7.026;2022-09-13T18:12:58;18.50;99.90
52471;DHT22;38382;53.160;7.026;2022-09-13T18:15:59;18.30;99.90
52471;DHT22;38382;53.160;7.026;2022-09-13T18:24:05;18.10;99.90
52471;DHT22;38382;53.160;7.026;2022-09-13T18:26:50;18.00;99.90
52471;DHT22;38382;53.160;7.026;2022-09-13T18:29:15;17.90;99.90
52471;DHT22;38382;53.160;7.026;2022-09-13T18:31:43;17.80;99.90
52471;DHT22;38382;53.160;7.026;2022-09-13T18:34:11;17.70;99.90
52471;DHT22;38382;53.160;7.026;2022-09-13T18:36:37;17.70;99.90
52471;DHT22;38382;53.160;7.026;2022-09-13T18:39:04;17.60;99.90
52471;DHT22;38382;53.160;7.026;2022-09-13T18:41:36;17.60;99.90
52471;DHT22;38382;53.160;7.026;2022-09-13T18:44:02;17.50;99.90
52471;DHT22;38382;53.160;7.026;2022-09-13T18:46:32;17.40;99.90
52471;DHT22;38382;53.160;7.026;2022-09-13T18:48:59;17.40;99.90
52471;DHT22;38382;53.160;7.026;2022-09-13T18:51:34;17.30;99.90
52471;DHT22;38382;53.160;7.026;2022-09-13T18:54:01;17.20;99.90
52471;DHT22;38382;53.160;7.026;2022-09-13T18:56:28;17.10;99.90
52471;DHT22;38382;53.160;7.026;2022-09-13T18:58:54;17.00;99.90
52471;DHT22;38382;53.160;7.026;2022-09-13T19:01:38;17.00;99.90
52471;DHT22;38382;53.160;7.026;2022-09-13T19:06:37;17.00;99.90
52471;DHT22;38382;53.160;7.026;2022-09-13T19:09:04;16.90;99.90
52471;DHT22;38382;53.160;7.026;2022-09-13T19:11:41;16.90;99.90
52471;DHT22;38382;53.160;7.026;2022-09-13T19:14:08;16.90;99.90
52471;DHT22;38382;53.160;7.026;2022-09-13T19:16:35;16.80;99.90
52471;DHT22;38382;53.160;7.026;2022-09-13T19:19:01;16.70;99.90
52471;DHT22;38382;53.160;7.026;2022-09-13T19:21:29;16.60;99.90
52471;DHT22;38382;53.160;7.026;2022-09-13T19:23:56;16.50;99.90
52471;DHT22;38382;53.160;7.026;2022-09-13T19:26:28;16.50;99.90
52471;DHT22;38382;53.160;7.026;2022-09-13T19:28:58;16.50;99.90
52471;DHT22;38382;53.160;7.026;2022-09-13T19:31:29;16.40;99.90
52471;DHT22;38382;53.160;7.026;2022-09-13T19:33:56;16.30;99.90
52471;DHT22;38382;53.160;7.026;2022-09-13T19:36:23;16.30;99.90
52471;DHT22;38382;53.160;7.026;2022-09-13T19:38:51;16.20;99.90
52471;DHT22;38382;53.160;7.026;2022-09-13T19:41:19;16.20;99.90
52471;DHT22;38382;53.160;7.026;2022-09-13T19:43:45;16.20;99.90
52471;DHT22;38382;53.160;7.026;2022-09-13T19:46:16;16.20;99.90
52471;DHT22;38382;53.160;7.026;2022-09-13T19:48:48;16.10;99.90
52471;DHT22;38382;53.160;7.026;2022-09-13T19:51:20;16.10;99.90
52471;DHT22;38382;53.160;7.026;2022-09-13T19:53:48;16.00;99.90
52471;DHT22;38382;53.160;7.026;2022-09-13T19:56:16;16.40;99.90
52471;DHT22;38382;53.160;7.026;2022-09-13T19:58:43;16.00;99.90
52471;DHT22;38382;53.160;7.026;2022-09-13T20:01:12;15.90;99.90
52471;DHT22;38382;53.160;7.026;2022-09-13T20:03:40;15.90;99.90
52471;DHT22;38382;53.160;7.026;2022-09-13T20:06:09;15.90;99.90
52471;DHT22;38382;53.160;7.026;2022-09-13T20:08:35;15.80;99.90
52471;DHT22;38382;53.160;7.026;2022-09-13T20:11:06;15.70;99.90
52471;DHT22;38382;53.160;7.026;2022-09-13T20:13:32;15.80;99.90
52471;DHT22;38382;53.160;7.026;2022-09-13T20:15:58;15.70;99.90
52471;DHT22;38382;53.160;7.026;2022-09-13T20:18:24;15.70;99.90
52471;DHT22;38382;53.160;7.026;2022-09-13T20:20:50;15.70;99.90
52471;DHT22;38382;53.160;7.026;2022-09-13T20:23:20;15.70;99.90
52471;DHT22;38382;53.160;7.026;2022-09-13T20:25:48;15.60;99.90
52471;DHT22;38382;53.160;7.026;2022-09-13T20:28:15;16.20;99.90
52471;DHT22;38382;53.160;7.026;2022-09-13T20:30:41;15.70;99.90
52471;DHT22;38382;53.160;7.026;2022-09-13T20:33:07;15.60;99.90
52471;DHT22;38382;53.160;7.026;2022-09-13T20:35:36;15.50;99.90
52471;DHT22;38382;53.160;7.026;2022-09-13T20:38:03;15.50;99.90
52471;DHT22;38382;53.160;7.026;2022-09-13T20:40:30;15.40;99.90
52471;DHT22;38382;53.160;7.026;2022-09-13T20:42:56;15.30;99.90
52471;DHT22;38382;53.160;7.026;2022-09-13T20:45:22;15.30;99.90
52471;DHT22;38382;53.160;7.026;2022-09-13T20:47:48;15.30;99.90
52471;DHT22;38382;53.160;7.026;2022-09-13T20:50:54;15.30;99.90
52471;DHT22;38382;53.160;7.026;2022-09-13T20:53:20;15.30;99.90
52471;DHT22;38382;53.160;7.026;2022-09-13T20:55:45;15.20;99.90
52471;DHT22;38382;53.160;7.026;2022-09-13T20:58:12;15.20;99.90
52471;DHT22;38382;53.160;7.026;2022-09-13T21:00:37;15.20;99.90
52471;DHT22;38382;53.160;7.026;2022-09-13T21:03:03;15.20;99.90
52471;DHT22;38382;53.160;7.026;2022-09-13T21:05:29;15.10;99.90
52471;DHT22;38382;53.160;7.026;2022-09-13T21:07:55;15.10;99.90
52471;DHT22;38382;53.160;7.026;2022-09-13T21:11:00;15.10;99.90
52471;DHT22;38382;53.160;7.026;2022-09-13T21:13:27;15.00;99.90
52471;DHT22;38382;53.160;7.026;2022-09-13T21:15:53;15.20;99.90
52471;DHT22;38382;53.160;7.026;2022-09-13T21:18:19;15.00;99.90
52471;DHT22;38382;53.160;7.026;2022-09-13T21:20:54;15.00;99.90
52471;DHT22;38382;53.160;7.026;2022-09-13T21:23:20;15.00;99.90
52471;DHT22;38382;53.160;7.026;2022-09-13T21:25:46;15.00;99.90
52471;DHT22;38382;53.160;7.026;2022-09-13T21:28:43;14.90;99.90
52471;DHT22;38382;53.160;7.026;2022-09-13T21:31:18;14.00;99.90
52471;DHT22;38382;53.160;7.026;2022-09-13T21:33:44;14.80;99.90
52471;DHT22;38382;53.160;7.026;2022-09-13T21:36:11;15.60;99.90
52471;DHT22;38382;53.160;7.026;2022-09-13T21:38:38;15.10;99.90
52471;DHT22;38382;53.160;7.026;2022-09-13T21:41:06;14.80;99.90
52471;DHT22;38382;53.160;7.026;2022-09-13T21:43:34;13.90;99.90
52471;DHT22;38382;53.160;7.026;2022-09-13T21:46:05;14.70;99.90
52471;DHT22;38382;53.160;7.026;2022-09-13T21:48:32;14.70;99.90
52471;DHT22;38382;53.160;7.026;2022-09-13T21:51:23;14.70;99.90
52471;DHT22;38382;53.160;7.026;2022-09-13T21:53:50;14.70;99.90
52471;DHT22;38382;53.160;7.026;2022-09-13T21:56:20;14.70;99.90
52471;DHT22;38382;53.160;7.026;2022-09-13T21:58:49;14.70;99.90
52471;DHT22;38382;53.160;7.026;2022-09-13T22:01:16;14.60;99.90
52471;DHT22;38382;53.160;7.026;2022-09-13T22:03:43;14.60;99.90
52471;DHT22;38382;53.160;7.026;2022-09-13T22:06:11;14.60;99.90
52471;DHT22;38382;53.160;7.026;2022-09-13T22:08:41;14.50;99.90
52471;DHT22;38382;53.160;7.026;2022-09-13T22:11:15;14.50;99.90
52471;DHT22;38382;53.160;7.026;2022-09-13T22:13:43;14.50;99.90
52471;DHT22;38382;53.160;7.026;2022-09-13T22:16:24;14.40;99.90
52471;DHT22;38382;53.160;7.026;2022-09-13T22:19:01;14.40;99.90
52471;DHT22;38382;53.160;7.026;2022-09-13T22:21:31;14.40;99.90
52471;DHT22;38382;53.160;7.026;2022-09-13T22:24:01;14.40;99.90
52471;DHT22;38382;53.160;7.026;2022-09-13T22:26:42;14.40;99.90
52471;DHT22;38382;53.160;7.026;2022-09-13T22:30:05;13.90;99.90
52471;DHT22;38382;53.160;7.026;2022-09-13T22:33:19;14.40;99.90
52471;DHT22;38382;53.160;7.026;2022-09-13T22:35:56;14.30;99.90
52471;DHT22;38382;53.160;7.026;2022-09-13T22:38:22;14.30;99.90
52471;DHT22;38382;53.160;7.026;2022-09-13T22:40:56;15.20;99.90
52471;DHT22;38382;53.160;7.026;2022-09-13T22:43:22;14.30;99.90
52471;DHT22;38382;53.160;7.026;2022-09-13T22:45:51;14.80;99.90
52471;DHT22;38382;53.160;7.026;2022-09-13T22:48:19;14.20;99.90
52471;DHT22;38382;53.160;7.026;2022-09-13T22:50:49;14.90;99.90
52471;DHT22;38382;53.160;7.026;2022-09-13T22:53:16;14.20;99.90
52471;DHT22;38382;53.160;7.026;2022-09-13T22:55:41;14.10;99.90
52471;DHT22;38382;53.160;7.026;2022-09-13T22:58:07;14.20;99.90
52471;DHT22;38382;53.160;7.026;2022-09-13T23:00:33;14.10;99.90
52471;DHT22;38382;53.160;7.026;2022-09-13T23:02:58;14.10;99.90
52471;DHT22;38382;53.160;7.026;2022-09-13T23:05:24;14.10;99.90
52471;DHT22;38382;53.160;7.026;2022-09-13T23:07:50;15.20;99.90
52471;DHT22;38382;53.160;7.026;2022-09-13T23:10:15;14.00;99.90
52471;DHT22;38382;53.160;7.026;2022-09-13T23:12:41;14.00;99.90
52471;DHT22;38382;53.160;7.026;2022-09-13T23:15:09;14.00;99.90
52471;DHT22;38382;53.160;7.026;2022-09-13T23:17:54;13.90;99.90
52471;DHT22;38382;53.160;7.026;2022-09-13T23:20:35;13.90;99.90
52471;DHT22;38382;53.160;7.026;2022-09-13T23:23:04;13.90;99.90
52471;DHT22;38382;53.160;7.026;2022-09-13T23:25:31;13.90;99.90
52471;DHT22;38382;53.160;7.026;2022-09-13T23:27:57;13.90;99.90
52471;DHT22;38382;53.160;7.026;2022-09-13T23:30:24;13.10;99.90
52471;DHT22;38382;53.160;7.026;2022-09-13T23:32:49;13.90;99.90
52471;DHT22;38382;53.160;7.026;2022-09-13T23:35:16;13.90;99.90
52471;DHT22;38382;53.160;7.026;2022-09-13T23:37:42;13.90;99.90
52471;DHT22;38382;53.160;7.026;2022-09-13T23:40:11;13.80;99.90
52471;DHT22;38382;53.160;7.026;2022-09-13T23:42:40;13.80;99.90
52471;DHT22;38382;53.160;7.026;2022-09-13T23:45:20;13.20;99.90
52471;DHT22;38382;53.160;7.026;2022-09-13T23:47:49;13.90;99.90
52471;DHT22;38382;53.160;7.026;2022-09-13T23:50:15;14.20;99.90
52471;DHT22;38382;53.160;7.026;2022-09-13T23:52:40;13.80;99.90
52471;DHT22;38382;53.160;7.026;2022-09-13T23:55:06;14.30;99.90
52471;DHT22;38382;53.160;7.026;2022-09-13T23:57:32;13.70;99.90
52471;DHT22;38382;53.160;7.026;2022-09-13T23:59:58;13.70;99.90
